sensor_id;sensor_type;location;lat;lon;timestamp;temperature;humidity
7516;DHT22;3799;47.184;8.538;2023-06-22T00:01:30;22.30;99.90
7516;DHT22;3799;47.184;8.538;2023-06-22T00:03:59;22.30;99.90
7516;DHT22;3799;47.184;8.538;2023-06-22T00:06:27;22.20;99.90
7516;DHT22;3799;47.184;8.538;2023-06-22T00:08:54;22.20;99.90
7516;DHT22;3799;47.184;8.538;2023-06-22T00:11:24;22.10;99.90
7516;DHT22;3799;47.184;8.538;2023-06-22T00:13:55;22.10;99.90
7516;DHT22;3799;47.184;8.538;2023-06-22T00:16:23;22.10;99.90
7516;DHT22;3799;47.184;8.538;2023-06-22T00:19:03;22.10;99.90
7516;DHT22;3799;47.184;8.538;2023-06-22T00:21:31;22.00;99.90
7516;DHT22;3799;47.184;8.538;2023-06-22T00:23:58;22.00;99.90
7516;DHT22;3799;47.184;8.538;2023-06-22T00:26:26;22.00;99.90
7516;DHT22;3799;47.184;8.538;2023-06-22T00:28:53;21.90;99.90
7516;DHT22;3799;47.184;8.538;2023-06-22T00:31:20;21.90;99.90
7516;DHT22;3799;47.184;8.538;2023-06-22T00:33:55;21.50;99.90
7516;DHT22;3799;47.184;8.538;2023-06-22T00:36:22;21.90;99.90
7516;DHT22;3799;47.184;8.538;2023-06-22T00:38:50;21.90;99.90
7516;DHT22;3799;47.184;8.538;2023-06-22T00:41:18;21.80;99.90
7516;DHT22;3799;47.184;8.538;2023-06-22T00:43:45;21.80;99.90
7516;DHT22;3799;47.184;8.538;2023-06-22T00:46:12;21.80;99.90
7516;DHT22;3799;47.184;8.538;2023-06-22T00:48:40;21.70;99.90
7516;DHT22;3799;47.184;8.538;2023-06-22T00:51:11;21.70;99.90
7516;DHT22;3799;47.184;8.538;2023-06-22T00:53:38;21.60;99.90
7516;DHT22;3799;47.184;8.538;2023-06-22T00:56:05;21.50;99.90
7516;DHT22;3799;47.184;8.538;2023-06-22T00:58:33;21.40;99.90
7516;DHT22;3799;47.184;8.538;2023-06-22T01:01:01;21.40;99.90
7516;DHT22;3799;47.184;8.538;2023-06-22T01:03:29;21.30;99.90
7516;DHT22;3799;47.184;8.538;2023-06-22T01:06:04;21.20;99.90
7516;DHT22;3799;47.184;8.538;2023-06-22T01:08:57;21.20;99.90
7516;DHT22;3799;47.184;8.538;2023-06-22T01:11:32;21.20;99.90
7516;DHT22;3799;47.184;8.538;2023-06-22T01:16:38;21.10;99.90
7516;DHT22;3799;47.184;8.538;2023-06-22T01:19:35;21.20;99.90
7516;DHT22;3799;47.184;8.538;2023-06-22T01:22:03;21.20;99.90
7516;DHT22;3799;47.184;8.538;2023-06-22T01:30:17;21.20;99.90
7516;DHT22;3799;47.184;8.538;2023-06-22T01:32:46;21.20;99.90
7516;DHT22;3799;47.184;8.538;2023-06-22T01:35:14;21.20;99.90
7516;DHT22;3799;47.184;8.538;2023-06-22T01:37:41;21.20;99.90
7516;DHT22;3799;47.184;8.538;2023-06-22T01:40:09;21.10;99.90
7516;DHT22;3799;47.184;8.538;2023-06-22T01:42:37;21.20;99.90
7516;DHT22;3799;47.184;8.538;2023-06-22T01:45:06;21.10;99.90
7516;DHT22;3799;47.184;8.538;2023-06-22T01:47:34;21.10;99.90
7516;DHT22;3799;47.184;8.538;2023-06-22T01:50:01;21.20;99.90
7516;DHT22;3799;47.184;8.538;2023-06-22T01:52:29;21.10;99.90
7516;DHT22;3799;47.184;8.538;2023-06-22T01:54:56;21.10;99.90
7516;DHT22;3799;47.184;8.538;2023-06-22T01:57:24;20.90;99.90
7516;DHT22;3799;47.184;8.538;2023-06-22T02:00:02;21.00;99.90
7516;DHT22;3799;47.184;8.538;2023-06-22T02:02:38;21.00;99.90
7516;DHT22;3799;47.184;8.538;2023-06-22T02:05:07;21.00;99.90
7516;DHT22;3799;47.184;8.538;2023-06-22T02:08:02;20.90;99.90
7516;DHT22;3799;47.184;8.538;2023-06-22T02:10:35;20.80;99.90
7516;DHT22;3799;47.184;8.538;2023-06-22T02:13:06;20.70;99.90
7516;DHT22;3799;47.184;8.538;2023-06-22T02:15:33;20.60;99.90
7516;DHT22;3799;47.184;8.538;2023-06-22T02:18:01;20.60;99.90
7516;DHT22;3799;47.184;8.538;2023-06-22T02:20:28;20.70;99.90
7516;DHT22;3799;47.184;8.538;2023-06-22T02:22:56;20.50;99.90
7516;DHT22;3799;47.184;8.538;2023-06-22T02:25:23;20.70;99.90
7516;DHT22;3799;47.184;8.538;2023-06-22T02:27:50;20.70;99.90
7516;DHT22;3799;47.184;8.538;2023-06-22T02:30:20;20.60;99.90
7516;DHT22;3799;47.184;8.538;2023-06-22T02:32:50;20.70;99.90
7516;DHT22;3799;47.184;8.538;2023-06-22T02:35:27;20.80;99.90
7516;DHT22;3799;47.184;8.538;2023-06-22T02:37:59;20.60;99.90
7516;DHT22;3799;47.184;8.538;2023-06-22T02:40:29;20.60;99.90
7516;DHT22;3799;47.184;8.538;2023-06-22T02:42:57;20.50;99.90
7516;DHT22;3799;47.184;8.538;2023-06-22T02:45:29;20.50;99.90
7516;DHT22;3799;47.184;8.538;2023-06-22T02:47:56;20.40;99.90
7516;DHT22;3799;47.184;8.538;2023-06-22T02:50:24;20.40;99.90
7516;DHT22;3799;47.184;8.538;2023-06-22T02:52:51;20.10;99.90
7516;DHT22;3799;47.184;8.538;2023-06-22T02:55:18;20.30;99.90
7516;DHT22;3799;47.184;8.538;2023-06-22T02:57:46;20.20;99.90
7516;DHT22;3799;47.184;8.538;2023-06-22T03:00:15;20.20;99.90
7516;DHT22;3799;47.184;8.538;2023-06-22T03:02:49;20.20;99.90
7516;DHT22;3799;47.184;8.538;2023-06-22T03:05:16;20.10;99.90
7516;DHT22;3799;47.184;8.538;2023-06-22T03:07:45;20.10;99.90
7516;DHT22;3799;47.184;8.538;2023-06-22T03:10:14;20.00;99.90
7516;DHT22;3799;47.184;8.538;2023-06-22T03:12:42;20.30;99.90
7516;DHT22;3799;47.184;8.538;2023-06-22T03:15:11;20.40;99.90
7516;DHT22;3799;47.184;8.538;2023-06-22T03:17:39;20.10;99.90
7516;DHT22;3799;47.184;8.538;2023-06-22T03:20:08;20.20;99.90
7516;DHT22;3799;47.184;8.538;2023-06-22T03:22:37;20.00;99.90
7516;DHT22;3799;47.184;8.538;2023-06-22T03:25:04;19.80;99.90
7516;DHT22;3799;47.184;8.538;2023-06-22T03:27:37;20.00;99.90
7516;DHT22;3799;47.184;8.538;2023-06-22T03:30:06;20.00;99.90
7516;DHT22;3799;47.184;8.538;2023-06-22T03:32:34;19.80;99.90
7516;DHT22;3799;47.184;8.538;2023-06-22T03:35:02;19.90;99.90
7516;DHT22;3799;47.184;8.538;2023-06-22T03:37:29;20.00;99.90
7516;DHT22;3799;47.184;8.538;2023-06-22T03:39:56;19.80;99.90
7516;DHT22;3799;47.184;8.538;2023-06-22T03:42:23;19.90;99.90
7516;DHT22;3799;47.184;8.538;2023-06-22T03:44:51;20.10;99.90
7516;DHT22;3799;47.184;8.538;2023-06-22T03:47:18;20.00;99.90
7516;DHT22;3799;47.184;8.538;2023-06-22T03:49:45;20.10;99.90
7516;DHT22;3799;47.184;8.538;2023-06-22T03:52:13;19.90;99.90
7516;DHT22;3799;47.184;8.538;2023-06-22T03:54:40;20.10;99.90
7516;DHT22;3799;47.184;8.538;2023-06-22T03:57:12;20.10;99.90
7516;DHT22;3799;47.184;8.538;2023-06-22T03:59:42;20.10;99.90
7516;DHT22;3799;47.184;8.538;2023-06-22T04:02:09;20.20;99.90
7516;DHT22;3799;47.184;8.538;2023-06-22T04:04:37;20.40;99.90
7516;DHT22;3799;47.184;8.538;2023-06-22T04:07:06;20.10;99.90
7516;DHT22;3799;47.184;8.538;2023-06-22T04:09:33;20.20;99.90
7516;DHT22;3799;47.184;8.538;2023-06-22T04:12:01;20.40;99.90
7516;DHT22;3799;47.184;8.538;2023-06-22T04:14:29;20.40;99.90
7516;DHT22;3799;47.184;8.538;2023-06-22T04:17:01;20.40;99.90
7516;DHT22;3799;47.184;8.538;2023-06-22T04:19:28;20.50;99.90
7516;DHT22;3799;47.184;8.538;2023-06-22T04:21:55;20.60;99.90
7516;DHT22;3799;47.184;8.538;2023-06-22T04:24:22;20.60;99.90
7516;DHT22;3799;47.184;8.538;2023-06-22T04:26:49;20.50;99.90
7516;DHT22;3799;47.184;8.538;2023-06-22T04:29:21;20.70;99.90
7516;DHT22;3799;47.184;8.538;2023-06-22T04:31:59;20.80;99.90
7516;DHT22;3799;47.184;8.538;2023-06-22T04:34:29;20.90;99.90
7516;DHT22;3799;47.184;8.538;2023-06-22T04:36:57;20.80;99.90
7516;DHT22;3799;47.184;8.538;2023-06-22T04:39:24;21.20;99.90
7516;DHT22;3799;47.184;8.538;2023-06-22T04:41:53;21.20;99.90
7516;DHT22;3799;47.184;8.538;2023-06-22T04:44:27;21.00;99.90
7516;DHT22;3799;47.184;8.538;2023-06-22T04:46:59;21.10;99.90
7516;DHT22;3799;47.184;8.538;2023-06-22T04:49:30;21.10;99.90
7516;DHT22;3799;47.184;8.538;2023-06-22T04:52:11;21.10;99.90
7516;DHT22;3799;47.184;8.538;2023-06-22T04:54:40;21.10;99.90
7516;DHT22;3799;47.184;8.538;2023-06-22T04:57:15;21.00;99.90
7516;DHT22;3799;47.184;8.538;2023-06-22T04:59:42;21.10;99.90
7516;DHT22;3799;47.184;8.538;2023-06-22T05:02:10;21.10;99.90
7516;DHT22;3799;47.184;8.538;2023-06-22T05:04:37;21.00;99.90
7516;DHT22;3799;47.184;8.538;2023-06-22T05:07:07;21.40;99.90
7516;DHT22;3799;47.184;8.538;2023-06-22T05:09:34;21.20;99.90
7516;DHT22;3799;47.184;8.538;2023-06-22T05:12:02;21.20;99.90
7516;DHT22;3799;47.184;8.538;2023-06-22T05:14:30;21.30;99.90
7516;DHT22;3799;47.184;8.538;2023-06-22T05:16:57;21.10;99.90
7516;DHT22;3799;47.184;8.538;2023-06-22T05:19:31;21.40;99.90
7516;DHT22;3799;47.184;8.538;2023-06-22T05:22:01;21.60;99.90
7516;DHT22;3799;47.184;8.538;2023-06-22T05:24:42;21.80;99.90
7516;DHT22;3799;47.184;8.538;2023-06-22T05:27:10;22.00;99.90
7516;DHT22;3799;47.184;8.538;2023-06-22T05:29:37;22.20;99.90
7516;DHT22;3799;47.184;8.538;2023-06-22T05:32:05;22.20;99.90
7516;DHT22;3799;47.184;8.538;2023-06-22T05:34:32;22.30;99.90
7516;DHT22;3799;47.184;8.538;2023-06-22T05:37:02;22.40;99.90
7516;DHT22;3799;47.184;8.538;2023-06-22T05:39:29;22.40;99.90
7516;DHT22;3799;47.184;8.538;2023-06-22T05:41:57;22.50;99.90
7516;DHT22;3799;47.184;8.538;2023-06-22T05:44:25;22.50;99.90
7516;DHT22;3799;47.184;8.538;2023-06-22T05:46:55;22.60;99.90
7516;DHT22;3799;47.184;8.538;2023-06-22T05:49:22;22.60;99.90
7516;DHT22;3799;47.184;8.538;2023-06-22T05:51:51;22.60;99.90
7516;DHT22;3799;47.184;8.538;2023-06-22T05:54:18;22.60;99.90
7516;DHT22;3799;47.184;8.538;2023-06-22T05:56:45;22.60;99.90
7516;DHT22;3799;47.184;8.538;2023-06-22T05:59:12;22.70;99.90
7516;DHT22;3799;47.184;8.538;2023-06-22T06:01:39;22.70;99.90
7516;DHT22;3799;47.184;8.538;2023-06-22T06:04:07;22.60;99.90
7516;DHT22;3799;47.184;8.538;2023-06-22T06:06:35;22.60;99.90
7516;DHT22;3799;47.184;8.538;2023-06-22T06:09:04;22.50;99.90
7516;DHT22;3799;47.184;8.538;2023-06-22T06:11:31;22.60;99.90
7516;DHT22;3799;47.184;8.538;2023-06-22T06:13:59;22.60;99.90
7516;DHT22;3799;47.184;8.538;2023-06-22T06:16:26;22.60;99.90
7516;DHT22;3799;47.184;8.538;2023-06-22T06:18:53;22.60;99.90
7516;DHT22;3799;47.184;8.538;2023-06-22T06:21:22;22.60;99.90
7516;DHT22;3799;47.184;8.538;2023-06-22T06:23:51;22.60;99.90
7516;DHT22;3799;47.184;8.538;2023-06-22T06:26:18;22.50;99.90
7516;DHT22;3799;47.184;8.538;2023-06-22T06:28:56;22.50;99.90
7516;DHT22;3799;47.184;8.538;2023-06-22T06:31:23;22.40;99.90
7516;DHT22;3799;47.184;8.538;2023-06-22T06:33:50;22.40;99.90
7516;DHT22;3799;47.184;8.538;2023-06-22T06:36:17;22.40;99.90
7516;DHT22;3799;47.184;8.538;2023-06-22T06:38:45;22.40;99.90
7516;DHT22;3799;47.184;8.538;2023-06-22T06:41:15;22.40;99.90
7516;DHT22;3799;47.184;8.538;2023-06-22T06:43:43;22.60;99.90
7516;DHT22;3799;47.184;8.538;2023-06-22T06:46:10;22.70;99.90
7516;DHT22;3799;47.184;8.538;2023-06-22T06:48:37;22.70;99.90
7516;DHT22;3799;47.184;8.538;2023-06-22T06:51:05;22.80;99.90
7516;DHT22;3799;47.184;8.538;2023-06-22T06:53:32;23.00;99.90
7516;DHT22;3799;47.184;8.538;2023-06-22T06:55:59;23.10;99.90
7516;DHT22;3799;47.184;8.538;2023-06-22T06:58:26;23.30;99.90
7516;DHT22;3799;47.184;8.538;2023-06-22T07:00:54;23.40;99.90
7516;DHT22;3799;47.184;8.538;2023-06-22T07:03:21;23.50;99.90
7516;DHT22;3799;47.184;8.538;2023-06-22T07:05:48;23.60;99.90
7516;DHT22;3799;47.184;8.538;2023-06-22T07:08:16;23.80;99.90
7516;DHT22;3799;47.184;8.538;2023-06-22T07:10:43;23.80;99.90
7516;DHT22;3799;47.184;8.538;2023-06-22T07:13:21;23.80;99.90
7516;DHT22;3799;47.184;8.538;2023-06-22T07:15:48;23.80;99.90
7516;DHT22;3799;47.184;8.538;2023-06-22T07:18:16;23.80;99.90
7516;DHT22;3799;47.184;8.538;2023-06-22T07:20:43;23.60;99.90
7516;DHT22;3799;47.184;8.538;2023-06-22T07:23:10;23.30;99.90
7516;DHT22;3799;47.184;8.538;2023-06-22T07:25:38;23.20;99.90
7516;DHT22;3799;47.184;8.538;2023-06-22T07:28:06;23.10;99.90
7516;DHT22;3799;47.184;8.538;2023-06-22T07:30:34;23.00;99.90
7516;DHT22;3799;47.184;8.538;2023-06-22T07:33:01;22.90;99.90
7516;DHT22;3799;47.184;8.538;2023-06-22T07:35:35;22.90;99.90
7516;DHT22;3799;47.184;8.538;2023-06-22T07:38:02;22.90;99.90
7516;DHT22;3799;47.184;8.538;2023-06-22T07:40:32;22.90;99.90
7516;DHT22;3799;47.184;8.538;2023-06-22T07:43:00;22.90;99.90
7516;DHT22;3799;47.184;8.538;2023-06-22T07:45:27;23.00;99.90
7516;DHT22;3799;47.184;8.538;2023-06-22T07:47:54;23.10;99.90
7516;DHT22;3799;47.184;8.538;2023-06-22T07:50:21;23.20;99.90
7516;DHT22;3799;47.184;8.538;2023-06-22T07:52:48;23.20;99.90
7516;DHT22;3799;47.184;8.538;2023-06-22T07:55:15;23.30;99.90
7516;DHT22;3799;47.184;8.538;2023-06-22T07:57:43;23.40;99.90
7516;DHT22;3799;47.184;8.538;2023-06-22T08:00:11;23.50;99.90
7516;DHT22;3799;47.184;8.538;2023-06-22T08:02:45;23.70;99.90
7516;DHT22;3799;47.184;8.538;2023-06-22T08:05:13;23.90;99.90
7516;DHT22;3799;47.184;8.538;2023-06-22T08:07:49;24.00;99.90
7516;DHT22;3799;47.184;8.538;2023-06-22T08:10:17;24.30;99.90
7516;DHT22;3799;47.184;8.538;2023-06-22T08:12:44;24.50;99.90
7516;DHT22;3799;47.184;8.538;2023-06-22T08:15:12;24.80;99.90
7516;DHT22;3799;47.184;8.538;2023-06-22T08:17:39;25.10;99.90
7516;DHT22;3799;47.184;8.538;2023-06-22T08:20:07;25.40;99.90
7516;DHT22;3799;47.184;8.538;2023-06-22T08:22:36;25.60;99.90
7516;DHT22;3799;47.184;8.538;2023-06-22T08:25:04;25.80;99.90
7516;DHT22;3799;47.184;8.538;2023-06-22T08:27:32;26.00;99.90
7516;DHT22;3799;47.184;8.538;2023-06-22T08:30:00;26.20;99.90
7516;DHT22;3799;47.184;8.538;2023-06-22T08:32:28;26.20;99.90
7516;DHT22;3799;47.184;8.538;2023-06-22T08:34:56;26.30;99.90
7516;DHT22;3799;47.184;8.538;2023-06-22T08:37:24;26.40;99.90
7516;DHT22;3799;47.184;8.538;2023-06-22T08:39:59;26.60;99.90
7516;DHT22;3799;47.184;8.538;2023-06-22T08:42:27;26.70;99.30
7516;DHT22;3799;47.184;8.538;2023-06-22T08:44:55;26.80;98.20
7516;DHT22;3799;47.184;8.538;2023-06-22T08:47:22;27.00;98.20
7516;DHT22;3799;47.184;8.538;2023-06-22T08:49:50;27.10;99.00
7516;DHT22;3799;47.184;8.538;2023-06-22T08:52:17;27.20;99.50
7516;DHT22;3799;47.184;8.538;2023-06-22T08:54:47;27.20;98.90
7516;DHT22;3799;47.184;8.538;2023-06-22T08:57:15;27.20;97.10
7516;DHT22;3799;47.184;8.538;2023-06-22T08:59:42;27.20;96.70
7516;DHT22;3799;47.184;8.538;2023-06-22T09:02:10;27.30;96.40
7516;DHT22;3799;47.184;8.538;2023-06-22T09:04:43;27.30;95.70
7516;DHT22;3799;47.184;8.538;2023-06-22T09:07:10;27.40;95.30
7516;DHT22;3799;47.184;8.538;2023-06-22T09:09:38;27.50;95.40
7516;DHT22;3799;47.184;8.538;2023-06-22T09:12:06;27.70;94.60
7516;DHT22;3799;47.184;8.538;2023-06-22T09:14:33;27.80;94.20
7516;DHT22;3799;47.184;8.538;2023-06-22T09:17:01;27.90;95.60
7516;DHT22;3799;47.184;8.538;2023-06-22T09:19:28;28.00;95.20
7516;DHT22;3799;47.184;8.538;2023-06-22T09:21:55;28.20;94.70
7516;DHT22;3799;47.184;8.538;2023-06-22T09:24:22;28.30;95.40
7516;DHT22;3799;47.184;8.538;2023-06-22T09:26:50;28.40;95.50
7516;DHT22;3799;47.184;8.538;2023-06-22T09:29:17;28.60;95.00
7516;DHT22;3799;47.184;8.538;2023-06-22T09:31:44;28.80;94.50
7516;DHT22;3799;47.184;8.538;2023-06-22T09:34:11;29.00;94.30
7516;DHT22;3799;47.184;8.538;2023-06-22T09:36:40;29.20;93.00
7516;DHT22;3799;47.184;8.538;2023-06-22T09:39:08;29.40;92.40
7516;DHT22;3799;47.184;8.538;2023-06-22T09:41:38;29.60;91.60
7516;DHT22;3799;47.184;8.538;2023-06-22T09:44:05;29.80;90.80
7516;DHT22;3799;47.184;8.538;2023-06-22T09:46:33;29.70;90.30
7516;DHT22;3799;47.184;8.538;2023-06-22T09:49:00;29.70;89.50
7516;DHT22;3799;47.184;8.538;2023-06-22T09:51:27;29.70;89.20
7516;DHT22;3799;47.184;8.538;2023-06-22T09:53:54;29.70;90.20
7516;DHT22;3799;47.184;8.538;2023-06-22T09:56:25;29.80;90.00
7516;DHT22;3799;47.184;8.538;2023-06-22T09:58:55;29.80;87.60
7516;DHT22;3799;47.184;8.538;2023-06-22T10:01:39;29.90;87.80
7516;DHT22;3799;47.184;8.538;2023-06-22T10:04:07;29.90;85.40
7516;DHT22;3799;47.184;8.538;2023-06-22T10:06:35;29.90;85.70
7516;DHT22;3799;47.184;8.538;2023-06-22T10:09:02;30.00;85.60
7516;DHT22;3799;47.184;8.538;2023-06-22T10:11:30;30.00;84.80
7516;DHT22;3799;47.184;8.538;2023-06-22T10:13:58;30.10;83.80
7516;DHT22;3799;47.184;8.538;2023-06-22T10:16:30;30.00;83.00
7516;DHT22;3799;47.184;8.538;2023-06-22T10:18:58;30.00;84.30
7516;DHT22;3799;47.184;8.538;2023-06-22T10:21:25;29.90;85.90
7516;DHT22;3799;47.184;8.538;2023-06-22T10:23:54;29.90;90.10
7516;DHT22;3799;47.184;8.538;2023-06-22T10:26:22;30.00;90.50
7516;DHT22;3799;47.184;8.538;2023-06-22T10:28:52;30.00;90.70
7516;DHT22;3799;47.184;8.538;2023-06-22T10:31:39;30.00;91.40
7516;DHT22;3799;47.184;8.538;2023-06-22T10:34:07;30.00;91.80
7516;DHT22;3799;47.184;8.538;2023-06-22T10:36:34;30.20;90.70
7516;DHT22;3799;47.184;8.538;2023-06-22T10:39:01;30.30;88.40
7516;DHT22;3799;47.184;8.538;2023-06-22T10:41:29;30.60;84.10
7516;DHT22;3799;47.184;8.538;2023-06-22T10:43:57;30.80;80.20
7516;DHT22;3799;47.184;8.538;2023-06-22T10:46:25;30.80;78.30
7516;DHT22;3799;47.184;8.538;2023-06-22T10:48:55;30.80;77.10
7516;DHT22;3799;47.184;8.538;2023-06-22T10:51:24;30.80;76.50
7516;DHT22;3799;47.184;8.538;2023-06-22T10:53:52;30.80;76.20
7516;DHT22;3799;47.184;8.538;2023-06-22T10:56:19;30.80;75.70
7516;DHT22;3799;47.184;8.538;2023-06-22T10:58:47;30.80;75.60
7516;DHT22;3799;47.184;8.538;2023-06-22T11:01:14;30.70;75.50
7516;DHT22;3799;47.184;8.538;2023-06-22T11:04:00;30.60;74.10
7516;DHT22;3799;47.184;8.538;2023-06-22T11:06:28;30.50;74.30
7516;DHT22;3799;47.184;8.538;2023-06-22T11:08:55;30.40;74.70
7516;DHT22;3799;47.184;8.538;2023-06-22T11:11:32;30.20;75.00
7516;DHT22;3799;47.184;8.538;2023-06-22T11:14:00;30.10;75.50
7516;DHT22;3799;47.184;8.538;2023-06-22T11:16:38;29.90;75.80
7516;DHT22;3799;47.184;8.538;2023-06-22T11:19:06;29.80;76.20
7516;DHT22;3799;47.184;8.538;2023-06-22T11:21:38;29.70;76.10
7516;DHT22;3799;47.184;8.538;2023-06-22T11:24:06;29.70;75.90
7516;DHT22;3799;47.184;8.538;2023-06-22T11:26:33;29.60;77.20
7516;DHT22;3799;47.184;8.538;2023-06-22T11:29:00;29.50;77.30
7516;DHT22;3799;47.184;8.538;2023-06-22T11:31:27;29.50;78.20
7516;DHT22;3799;47.184;8.538;2023-06-22T11:33:57;29.40;78.60
7516;DHT22;3799;47.184;8.538;2023-06-22T11:36:26;29.50;80.20
7516;DHT22;3799;47.184;8.538;2023-06-22T11:38:53;29.50;81.10
7516;DHT22;3799;47.184;8.538;2023-06-22T11:41:20;29.80;81.50
7516;DHT22;3799;47.184;8.538;2023-06-22T11:43:47;29.90;80.90
7516;DHT22;3799;47.184;8.538;2023-06-22T11:46:15;30.00;80.20
7516;DHT22;3799;47.184;8.538;2023-06-22T11:48:42;30.10;78.00
7516;DHT22;3799;47.184;8.538;2023-06-22T11:51:09;30.20;75.90
7516;DHT22;3799;47.184;8.538;2023-06-22T11:53:36;30.40;75.20
7516;DHT22;3799;47.184;8.538;2023-06-22T11:56:04;30.50;75.20
7516;DHT22;3799;47.184;8.538;2023-06-22T11:58:32;30.50;73.80
7516;DHT22;3799;47.184;8.538;2023-06-22T12:01:01;30.60;73.70
7516;DHT22;3799;47.184;8.538;2023-06-22T12:03:28;30.60;73.00
7516;DHT22;3799;47.184;8.538;2023-06-22T12:05:59;30.70;72.40
7516;DHT22;3799;47.184;8.538;2023-06-22T12:08:27;30.80;71.20
7516;DHT22;3799;47.184;8.538;2023-06-22T12:10:56;31.00;70.60
7516;DHT22;3799;47.184;8.538;2023-06-22T12:13:23;31.10;66.60
7516;DHT22;3799;47.184;8.538;2023-06-22T12:15:50;31.20;62.10
7516;DHT22;3799;47.184;8.538;2023-06-22T12:18:19;31.50;60.00
7516;DHT22;3799;47.184;8.538;2023-06-22T12:20:48;31.70;59.30
7516;DHT22;3799;47.184;8.538;2023-06-22T12:23:15;32.10;58.90
7516;DHT22;3799;47.184;8.538;2023-06-22T12:25:44;32.50;58.50
7516;DHT22;3799;47.184;8.538;2023-06-22T12:28:12;32.80;57.70
7516;DHT22;3799;47.184;8.538;2023-06-22T12:30:39;33.20;57.20
7516;DHT22;3799;47.184;8.538;2023-06-22T12:33:06;33.60;56.50
7516;DHT22;3799;47.184;8.538;2023-06-22T12:35:34;33.80;55.40
7516;DHT22;3799;47.184;8.538;2023-06-22T12:38:01;33.90;55.20
7516;DHT22;3799;47.184;8.538;2023-06-22T12:40:30;34.00;55.00
7516;DHT22;3799;47.184;8.538;2023-06-22T12:42:57;34.20;54.80
7516;DHT22;3799;47.184;8.538;2023-06-22T12:45:25;34.50;54.10
7516;DHT22;3799;47.184;8.538;2023-06-22T12:47:55;34.80;53.10
7516;DHT22;3799;47.184;8.538;2023-06-22T12:50:28;35.10;52.00
7516;DHT22;3799;47.184;8.538;2023-06-22T12:52:56;35.20;51.20
7516;DHT22;3799;47.184;8.538;2023-06-22T12:55:23;35.20;50.90
7516;DHT22;3799;47.184;8.538;2023-06-22T12:57:50;35.20;50.40
7516;DHT22;3799;47.184;8.538;2023-06-22T13:00:17;35.00;50.40
7516;DHT22;3799;47.184;8.538;2023-06-22T13:02:45;34.80;49.70
7516;DHT22;3799;47.184;8.538;2023-06-22T13:05:12;34.80;50.20
7516;DHT22;3799;47.184;8.538;2023-06-22T13:07:40;34.80;50.00
7516;DHT22;3799;47.184;8.538;2023-06-22T13:10:09;34.80;49.40
7516;DHT22;3799;47.184;8.538;2023-06-22T13:12:36;34.70;49.20
7516;DHT22;3799;47.184;8.538;2023-06-22T13:15:04;34.60;49.90
7516;DHT22;3799;47.184;8.538;2023-06-22T13:17:31;34.20;50.50
7516;DHT22;3799;47.184;8.538;2023-06-22T13:19:58;33.90;50.70
7516;DHT22;3799;47.184;8.538;2023-06-22T13:22:34;33.50;50.90
7516;DHT22;3799;47.184;8.538;2023-06-22T13:25:09;33.00;51.00
7516;DHT22;3799;47.184;8.538;2023-06-22T13:27:40;32.40;47.80
7516;DHT22;3799;47.184;8.538;2023-06-22T13:30:11;31.70;46.10
7516;DHT22;3799;47.184;8.538;2023-06-22T13:32:41;31.20;46.20
7516;DHT22;3799;47.184;8.538;2023-06-22T13:35:10;30.80;46.40
7516;DHT22;3799;47.184;8.538;2023-06-22T13:37:37;30.50;46.50
7516;DHT22;3799;47.184;8.538;2023-06-22T13:40:08;30.00;46.70
7516;DHT22;3799;47.184;8.538;2023-06-22T13:42:35;29.60;47.20
7516;DHT22;3799;47.184;8.538;2023-06-22T13:45:03;29.40;48.00
7516;DHT22;3799;47.184;8.538;2023-06-22T13:47:31;29.10;47.80
7516;DHT22;3799;47.184;8.538;2023-06-22T13:50:01;28.90;48.30
7516;DHT22;3799;47.184;8.538;2023-06-22T13:52:28;28.70;48.80
7516;DHT22;3799;47.184;8.538;2023-06-22T13:54:56;28.50;49.10
7516;DHT22;3799;47.184;8.538;2023-06-22T13:57:26;28.30;49.60
7516;DHT22;3799;47.184;8.538;2023-06-22T13:59:53;28.10;50.20
7516;DHT22;3799;47.184;8.538;2023-06-22T14:02:21;27.90;51.10
7516;DHT22;3799;47.184;8.538;2023-06-22T14:04:48;27.80;52.20
7516;DHT22;3799;47.184;8.538;2023-06-22T14:07:15;27.80;52.60
7516;DHT22;3799;47.184;8.538;2023-06-22T14:09:43;27.70;52.50
7516;DHT22;3799;47.184;8.538;2023-06-22T14:12:11;27.60;53.00
7516;DHT22;3799;47.184;8.538;2023-06-22T14:14:38;27.50;54.00
7516;DHT22;3799;47.184;8.538;2023-06-22T14:17:06;27.40;54.40
7516;DHT22;3799;47.184;8.538;2023-06-22T14:19:33;27.40;54.40
7516;DHT22;3799;47.184;8.538;2023-06-22T14:22:00;27.40;54.30
7516;DHT22;3799;47.184;8.538;2023-06-22T14:24:27;27.50;54.60
7516;DHT22;3799;47.184;8.538;2023-06-22T14:26:56;27.50;54.70
7516;DHT22;3799;47.184;8.538;2023-06-22T14:29:25;27.70;54.80
7516;DHT22;3799;47.184;8.538;2023-06-22T14:31:52;27.80;54.50
7516;DHT22;3799;47.184;8.538;2023-06-22T14:34:23;27.80;54.30
7516;DHT22;3799;47.184;8.538;2023-06-22T14:36:50;27.80;54.70
7516;DHT22;3799;47.184;8.538;2023-06-22T14:39:17;28.00;55.10
7516;DHT22;3799;47.184;8.538;2023-06-22T14:41:44;28.40;54.50
7516;DHT22;3799;47.184;8.538;2023-06-22T14:44:11;28.70;54.30
7516;DHT22;3799;47.184;8.538;2023-06-22T14:46:38;29.00;53.50
7516;DHT22;3799;47.184;8.538;2023-06-22T14:49:06;29.20;52.90
7516;DHT22;3799;47.184;8.538;2023-06-22T14:51:33;29.20;52.70
7516;DHT22;3799;47.184;8.538;2023-06-22T14:54:00;29.20;52.30
7516;DHT22;3799;47.184;8.538;2023-06-22T14:56:27;29.20;51.80
7516;DHT22;3799;47.184;8.538;2023-06-22T14:58:57;29.40;52.00
7516;DHT22;3799;47.184;8.538;2023-06-22T15:01:24;29.50;51.30
7516;DHT22;3799;47.184;8.538;2023-06-22T15:03:52;29.60;51.40
7516;DHT22;3799;47.184;8.538;2023-06-22T15:06:19;29.60;50.90
7516;DHT22;3799;47.184;8.538;2023-06-22T15:08:46;29.60;50.90
7516;DHT22;3799;47.184;8.538;2023-06-22T15:11:14;29.50;50.90
7516;DHT22;3799;47.184;8.538;2023-06-22T15:13:41;29.50;51.20
7516;DHT22;3799;47.184;8.538;2023-06-22T15:16:11;29.40;51.00
7516;DHT22;3799;47.184;8.538;2023-06-22T15:18:38;29.10;51.00
7516;DHT22;3799;47.184;8.538;2023-06-22T15:21:08;28.90;50.70
7516;DHT22;3799;47.184;8.538;2023-06-22T15:23:36;28.60;51.10
7516;DHT22;3799;47.184;8.538;2023-06-22T15:26:04;28.30;51.30
7516;DHT22;3799;47.184;8.538;2023-06-22T15:28:32;28.10;51.30
7516;DHT22;3799;47.184;8.538;2023-06-22T15:31:00;28.00;51.60
7516;DHT22;3799;47.184;8.538;2023-06-22T15:33:28;27.80;52.10
7516;DHT22;3799;47.184;8.538;2023-06-22T15:35:56;27.80;52.40
7516;DHT22;3799;47.184;8.538;2023-06-22T15:38:23;27.70;52.70
7516;DHT22;3799;47.184;8.538;2023-06-22T15:40:58;27.60;53.00
7516;DHT22;3799;47.184;8.538;2023-06-22T15:43:25;27.40;53.00
7516;DHT22;3799;47.184;8.538;2023-06-22T15:45:53;27.30;53.20
7516;DHT22;3799;47.184;8.538;2023-06-22T15:48:21;27.10;53.30
7516;DHT22;3799;47.184;8.538;2023-06-22T15:50:49;27.00;53.60
7516;DHT22;3799;47.184;8.538;2023-06-22T15:53:16;26.80;54.10
7516;DHT22;3799;47.184;8.538;2023-06-22T15:55:43;26.70;54.70
7516;DHT22;3799;47.184;8.538;2023-06-22T15:58:13;26.60;55.20
7516;DHT22;3799;47.184;8.538;2023-06-22T16:00:41;26.50;55.90
7516;DHT22;3799;47.184;8.538;2023-06-22T16:03:08;26.30;56.90
7516;DHT22;3799;47.184;8.538;2023-06-22T16:05:36;26.10;58.50
7516;DHT22;3799;47.184;8.538;2023-06-22T16:08:04;26.00;59.10
7516;DHT22;3799;47.184;8.538;2023-06-22T16:10:41;25.80;59.80
7516;DHT22;3799;47.184;8.538;2023-06-22T16:13:08;25.60;64.70
7516;DHT22;3799;47.184;8.538;2023-06-22T16:15:35;25.40;66.00
7516;DHT22;3799;47.184;8.538;2023-06-22T16:18:03;25.10;70.50
7516;DHT22;3799;47.184;8.538;2023-06-22T16:20:30;24.80;75.40